createdAt,value
2023-04-15T00:01:43.521Z,67.67
2023-04-15T00:06:38.406Z,68.16
2023-04-15T00:11:35.152Z,69.00
2023-04-15T00:16:29.802Z,68.66
2023-04-15T00:21:22.975Z,68.46
2023-04-15T00:26:16.311Z,67.97
2023-04-15T00:31:09.987Z,67.25
2023-04-15T00:36:05.156Z,68.26
2023-04-15T00:40:58.804Z,67.24
2023-04-15T00:45:54.772Z,68.86
2023-04-15T00:50:48.557Z,69.18
2023-04-15T00:55:43.799Z,71.10
2023-04-15T01:00:37.445Z,71.76
2023-04-15T01:05:31.597Z,73.17
2023-04-15T01:10:24.927Z,73.58
2023-04-15T01:15:19.894Z,74.36
2023-04-15T01:20:13.719Z,76.04
2023-04-15T01:25:10.986Z,75.47
2023-04-15T01:30:06.529Z,76.33
2023-04-15T01:34:59.801Z,76.97
2023-04-15T01:39:53.041Z,77.55
2023-04-15T01:44:46.445Z,79.05
2023-04-15T01:49:41.188Z,79.19
2023-04-15T01:54:34.517Z,80.07
2023-04-15T01:59:27.820Z,79.66
2023-04-15T02:04:20.997Z,81.50
2023-04-15T02:09:15.634Z,81.30
2023-04-15T02:14:12.072Z,81.72
2023-04-15T02:19:05.456Z,82.07
2023-04-15T02:23:58.601Z,81.50
2023-04-15T02:28:53.622Z,82.13
2023-04-15T02:33:47.224Z,82.55
2023-04-15T02:38:42.537Z,83.19
2023-04-15T02:43:35.790Z,83.51
2023-04-15T02:48:30.651Z,83.57
2023-04-15T02:53:23.852Z,83.20
2023-04-15T02:58:17.199Z,82.92
2023-04-15T03:03:10.961Z,84.41
2023-04-15T03:08:07.828Z,84.19
2023-04-15T03:13:01.309Z,84.31
2023-04-15T03:17:54.498Z,83.49
2023-04-15T03:22:47.589Z,82.63
2023-04-15T03:27:43.108Z,82.84
2023-04-15T03:32:37.796Z,83.54
2023-04-15T03:37:33.276Z,83.64
2023-04-15T03:42:26.459Z,84.50
2023-04-15T03:47:21.368Z,85.04
2023-04-15T03:52:14.944Z,85.38
2023-04-15T03:57:08.164Z,85.28
2023-04-15T04:02:01.694Z,85.57
2023-04-15T04:06:56.457Z,85.77
2023-04-15T04:11:49.729Z,86.63
2023-04-15T04:16:42.892Z,87.25
2023-04-15T04:21:36.639Z,87.43
2023-04-15T04:26:31.330Z,87.63
2023-04-15T04:31:26.380Z,87.16
2023-04-15T04:36:19.630Z,86.53
2023-04-15T04:41:12.901Z,87.39
2023-04-15T04:46:07.424Z,87.53
2023-04-15T04:51:00.880Z,87.13
2023-04-15T04:55:53.998Z,86.87
2023-04-15T05:00:47.288Z,87.83
2023-04-15T05:05:41.792Z,88.21
2023-04-15T05:10:35.274Z,87.96
2023-04-15T05:15:37.025Z,88.28
2023-04-15T05:20:30.535Z,88.52
2023-04-15T05:25:25.192Z,88.62
2023-04-15T05:30:18.651Z,88.23
2023-04-15T05:35:12.853Z,88.17
2023-04-15T05:40:06.618Z,88.21
2023-04-15T05:45:01.671Z,89.21
2023-04-15T05:49:57.546Z,87.76
2023-04-15T05:54:50.786Z,87.78
2023-04-15T05:59:44.845Z,88.12
2023-04-15T06:04:39.778Z,87.94
2023-04-15T06:09:33.026Z,85.06
2023-04-15T06:14:26.332Z,81.92
2023-04-15T06:19:22.565Z,81.17
2023-04-15T06:24:20.158Z,81.93
2023-04-15T06:29:13.329Z,83.12
2023-04-15T06:34:08.809Z,82.82
2023-04-15T06:39:02.957Z,80.67
2023-04-15T06:44:01.745Z,77.26
2023-04-15T06:48:57.105Z,77.18
2023-04-15T06:53:50.499Z,76.89
2023-04-15T06:58:43.715Z,76.03
2023-04-15T07:03:38.568Z,77.00
2023-04-15T07:08:32.594Z,74.33
2023-04-15T07:13:25.945Z,72.29
2023-04-15T07:18:23.732Z,70.22
2023-04-15T07:23:21.742Z,69.70
2023-04-15T07:28:17.094Z,70.16
2023-04-15T07:33:12.946Z,69.43
2023-04-15T07:38:14.267Z,70.05
2023-04-15T07:43:09.022Z,70.82
2023-04-15T07:48:05.532Z,68.79
2023-04-15T07:53:00.900Z,68.74
2023-04-15T07:57:54.230Z,69.17
2023-04-15T08:02:50.050Z,68.32
2023-04-15T08:07:43.547Z,67.35
2023-04-15T08:12:37.290Z,67.59
2023-04-15T08:17:30.630Z,65.46
2023-04-15T08:22:28.817Z,64.87
2023-04-15T08:27:22.273Z,63.27
2023-04-15T08:32:15.554Z,60.64
2023-04-15T08:37:12.729Z,55.77
2023-04-15T08:42:17.673Z,50.93
2023-04-15T08:47:11.505Z,52.86
2023-04-15T08:52:05.260Z,46.63
2023-04-15T08:57:00.166Z,45.75
2023-04-15T09:01:59.905Z,47.19
2023-04-15T09:06:53.511Z,43.37
2023-04-15T09:11:46.854Z,44.87
2023-04-15T09:16:59.502Z,40.95
2023-04-15T09:21:58.015Z,43.21
2023-04-15T09:26:55.672Z,44.52
2023-04-15T09:31:49.078Z,42.91
2023-04-15T09:37:02.353Z,42.97
2023-04-15T09:42:18.499Z,42.65
2023-04-15T09:47:28.055Z,44.00
2023-04-15T09:52:22.810Z,44.37
2023-04-15T09:57:16.021Z,42.91
2023-04-15T10:02:09.546Z,44.04
2023-04-15T10:07:06.322Z,45.14
2023-04-15T10:12:06.256Z,41.87
2023-04-15T10:17:02.625Z,41.45
2023-04-15T10:21:57.098Z,41.60
2023-04-15T10:26:51.609Z,43.79
2023-04-15T10:31:46.469Z,43.89
2023-04-15T10:36:39.714Z,41.65
2023-04-15T10:41:34.654Z,43.73
2023-04-15T10:46:38.792Z,36.55
2023-04-15T10:51:33.584Z,38.45
2023-04-15T10:56:27.143Z,35.50
2023-04-15T11:01:23.350Z,35.10
2023-04-15T11:06:16.583Z,34.56
2023-04-15T11:11:11.371Z,33.93
2023-04-15T11:16:04.771Z,33.43
2023-04-15T11:21:00.220Z,31.03
2023-04-15T11:25:53.428Z,31.52
2023-04-15T11:30:48.472Z,28.10
2023-04-15T11:35:43.333Z,26.87
2023-04-15T11:40:39.852Z,27.11
2023-04-15T11:45:34.184Z,26.81
2023-04-15T11:51:05.327Z,26.99
2023-04-15T11:56:05.032Z,28.12
2023-04-15T12:01:01.477Z,26.48
2023-04-15T12:06:11.340Z,26.48
2023-04-15T12:11:04.906Z,26.46
2023-04-15T12:15:58.339Z,29.01
2023-04-15T12:20:51.691Z,29.79
2023-04-15T12:25:53.061Z,29.06
2023-04-15T12:30:51.755Z,30.23
2023-04-15T12:35:48.283Z,29.47
2023-04-15T12:40:44.673Z,29.62
2023-04-15T12:45:39.577Z,31.36
2023-04-15T12:50:33.315Z,32.42
2023-04-15T12:55:34.832Z,33.77
2023-04-15T13:00:28.686Z,34.42
2023-04-15T13:05:28.732Z,33.55
2023-04-15T13:10:23.853Z,29.05
2023-04-15T13:15:21.531Z,27.94
2023-04-15T13:20:17.634Z,28.00
2023-04-15T13:25:13.220Z,31.81
2023-04-15T13:30:07.951Z,30.94
2023-04-15T13:35:01.499Z,32.51
2023-04-15T13:39:58.956Z,32.78
2023-04-15T13:44:53.852Z,32.60
2023-04-15T13:49:47.617Z,31.99
2023-04-15T13:54:41.459Z,31.22
2023-04-15T13:59:36.407Z,33.33
2023-04-15T14:04:33.345Z,29.97
2023-04-15T14:09:28.089Z,32.67
2023-04-15T14:14:22.786Z,32.83
2023-04-15T14:19:16.801Z,32.65
2023-04-15T14:24:12.408Z,33.13
2023-04-15T14:29:06.707Z,35.47
2023-04-15T14:34:00.368Z,34.39
2023-04-15T14:38:54.027Z,33.76
2023-04-15T14:43:49.455Z,35.47
2023-04-15T14:48:43.789Z,34.06
2023-04-15T14:53:38.159Z,33.98
2023-04-15T14:58:34.995Z,36.60
2023-04-15T15:03:30.568Z,34.83
2023-04-15T15:08:25.756Z,35.64
2023-04-15T15:13:20.451Z,35.42
2023-04-15T15:18:19.409Z,35.71
2023-04-15T15:23:15.035Z,36.85
2023-04-15T15:28:09.267Z,35.84
2023-04-15T15:33:05.626Z,36.42
2023-04-15T15:38:01.638Z,37.79
2023-04-15T15:42:57.649Z,39.79
2023-04-15T15:47:51.332Z,38.71
2023-04-15T15:52:44.964Z,40.51
2023-04-15T15:57:38.284Z,41.07
2023-04-15T16:02:59.754Z,41.00
2023-04-15T16:07:46.939Z,40.30
2023-04-15T16:12:40.784Z,40.60
2023-04-15T16:17:35.757Z,41.26
2023-04-15T16:22:29.267Z,40.80
2023-04-15T16:27:23.017Z,40.16
2023-04-15T16:32:17.309Z,40.98
2023-04-15T16:37:12.171Z,39.73
2023-04-15T16:42:05.698Z,39.07
2023-04-15T16:46:58.971Z,39.45
2023-04-15T16:51:54.445Z,40.87
2023-04-15T16:56:51.254Z,41.29
2023-04-15T17:01:45.976Z,40.78
2023-04-15T17:06:40.164Z,40.49
2023-04-15T17:11:35.199Z,42.75
2023-04-15T17:16:30.131Z,40.97
2023-04-15T17:21:23.510Z,41.78
2023-04-15T17:26:16.891Z,42.53
2023-04-15T17:31:14.429Z,43.20
2023-04-15T17:36:09.477Z,45.42
2023-04-15T17:41:03.127Z,45.28
2023-04-15T17:46:00.813Z,45.62
2023-04-15T17:50:55.257Z,45.31
2023-04-15T17:55:53.418Z,44.79
2023-04-15T18:00:50.843Z,45.52
2023-04-15T18:05:44.201Z,45.33
2023-04-15T18:10:37.802Z,46.90
2023-04-15T18:15:37.275Z,46.02
2023-04-15T18:20:33.628Z,45.84
2023-04-15T18:25:27.207Z,46.08
2023-04-15T18:30:26.160Z,45.44
2023-04-15T18:35:21.882Z,46.91
2023-04-15T18:40:55.774Z,47.46
2023-04-15T18:45:49.200Z,45.32
2023-04-15T18:50:44.372Z,46.30
2023-04-15T18:55:37.704Z,48.25
2023-04-15T19:00:31.343Z,47.58
2023-04-15T19:05:24.684Z,46.47
2023-04-15T19:10:19.488Z,46.53
2023-04-15T19:15:16.921Z,48.15
2023-04-15T19:20:11.218Z,48.59
2023-04-15T19:25:07.366Z,47.43
2023-04-15T19:30:03.516Z,46.73
2023-04-15T19:34:56.864Z,46.29
2023-04-15T19:39:52.609Z,46.05
2023-04-15T19:44:45.943Z,45.41
2023-04-15T19:49:40.700Z,45.82
2023-04-15T19:54:37.054Z,45.45
2023-04-15T19:59:30.428Z,45.40
2023-04-15T20:04:23.878Z,44.95
2023-04-15T20:09:18.727Z,45.04
2023-04-15T20:14:14.669Z,45.09
2023-04-15T20:19:09.667Z,46.05
2023-04-15T20:24:05.924Z,46.38
2023-04-15T20:29:01.772Z,46.46
2023-04-15T20:33:55.157Z,47.17
2023-04-15T20:38:48.535Z,47.18
2023-04-15T20:43:41.915Z,47.82
2023-04-15T20:48:38.586Z,47.92
2023-04-15T20:53:34.712Z,48.62
2023-04-15T20:58:29.802Z,48.95
2023-04-15T21:03:23.313Z,48.97
2023-04-15T21:08:18.105Z,48.89
2023-04-15T21:13:13.219Z,49.60
2023-04-15T21:18:06.521Z,50.48
2023-04-15T21:22:59.771Z,51.33
2023-04-15T21:27:54.360Z,52.32
2023-04-15T21:32:47.602Z,52.97
2023-04-15T21:37:40.862Z,53.92
2023-04-15T21:42:34.241Z,55.29
2023-04-15T21:47:31.793Z,56.35
2023-04-15T21:52:44.917Z,56.86
2023-04-15T21:57:38.084Z,57.58
2023-04-15T22:02:32.843Z,58.95
2023-04-15T22:07:26.607Z,60.23
2023-04-15T22:12:19.690Z,60.55
2023-04-15T22:17:15.331Z,60.78
2023-04-15T22:22:09.946Z,61.48
2023-04-15T22:27:03.376Z,63.15
2023-04-15T22:31:56.762Z,62.70
2023-04-15T22:36:50.919Z,64.02
2023-04-15T22:41:46.052Z,64.39
2023-04-15T22:46:39.523Z,64.71
2023-04-15T22:51:33.644Z,65.82
2023-04-15T22:56:26.920Z,66.41
2023-04-15T23:01:21.717Z,67.20
2023-04-15T23:06:15.207Z,68.45
2023-04-15T23:11:10.853Z,70.06
2023-04-15T23:16:04.261Z,69.70
2023-04-15T23:20:59.083Z,69.29
2023-04-15T23:25:52.374Z,67.50
2023-04-15T23:30:45.783Z,67.82
2023-04-15T23:35:39.246Z,69.25
2023-04-15T23:40:33.951Z,70.33
2023-04-15T23:45:27.153Z,71.11
2023-04-15T23:50:20.521Z,71.87
2023-04-15T23:55:13.977Z,72.46
